createdAt,value
2022-07-29T00:00:37.240Z,94.62
2022-07-29T00:01:37.238Z,94.72
2022-07-29T00:02:37.250Z,94.72
2022-07-29T00:03:37.250Z,94.82
2022-07-29T00:04:37.291Z,95.02
2022-07-29T00:05:37.198Z,95.32
2022-07-29T00:06:37.195Z,95.53
2022-07-29T00:07:37.161Z,95.43
2022-07-29T00:08:37.163Z,94.92
2022-07-29T00:09:43.071Z,95.17
2022-07-29T00:10:37.104Z,95.07
2022-07-29T00:11:37.080Z,94.86
2022-07-29T00:12:37.057Z,94.76
2022-07-29T00:13:37.071Z,95.07
2022-07-29T00:14:37.034Z,94.96
2022-07-29T00:15:37.033Z,94.66
2022-07-29T00:16:37.171Z,94.76
2022-07-29T00:17:37.009Z,95.17
2022-07-29T00:18:37.046Z,94.56
2022-07-29T00:19:37.036Z,94.76
2022-07-29T00:20:37.057Z,94.86
2022-07-29T00:21:37.026Z,94.76
2022-07-29T00:22:36.958Z,94.86
2022-07-29T00:23:37.067Z,94.66
2022-07-29T00:24:39.929Z,94.66
2022-07-29T00:25:36.942Z,94.76
2022-07-29T00:26:36.944Z,94.76
2022-07-29T00:27:36.901Z,94.56
2022-07-29T00:28:36.914Z,94.86
2022-07-29T00:29:36.883Z,95.07
2022-07-29T00:30:36.871Z,94.86
2022-07-29T00:31:36.908Z,94.56
2022-07-29T00:32:36.859Z,94.46
2022-07-29T00:33:36.865Z,94.46
2022-07-29T00:34:36.847Z,94.66
2022-07-29T00:35:36.821Z,94.56
2022-07-29T00:36:36.843Z,94.66
2022-07-29T00:37:36.803Z,94.86
2022-07-29T00:38:36.783Z,94.66
2022-07-29T00:39:39.783Z,94.81
2022-07-29T00:40:36.793Z,94.60
2022-07-29T00:41:36.873Z,94.60
2022-07-29T00:42:36.757Z,94.71
2022-07-29T00:43:36.760Z,94.60
2022-07-29T00:44:36.725Z,95.11
2022-07-29T00:45:36.724Z,95.31
2022-07-29T00:46:36.756Z,95.21
2022-07-29T00:47:36.705Z,95.21
2022-07-29T00:48:36.744Z,94.91
2022-07-29T00:49:36.676Z,95.31
2022-07-29T00:50:36.666Z,95.51
2022-07-29T00:51:36.675Z,95.56
2022-07-29T00:52:36.647Z,95.86
2022-07-29T00:53:36.645Z,95.86
2022-07-29T00:54:44.737Z,95.97
2022-07-29T00:55:36.644Z,95.76
2022-07-29T00:56:36.647Z,95.56
2022-07-29T00:57:36.589Z,95.42
2022-07-29T00:58:36.686Z,95.62
2022-07-29T00:59:36.579Z,95.31
2022-07-29T01:00:36.607Z,95.92
2022-07-29T01:01:36.607Z,95.62
2022-07-29T01:02:36.611Z,95.72
2022-07-29T01:03:36.552Z,95.42
2022-07-29T01:04:36.522Z,95.51
2022-07-29T01:05:50.070Z,95.72
2022-07-29T01:06:36.500Z,95.72
2022-07-29T01:07:36.491Z,95.51
2022-07-29T01:08:36.483Z,96.02
2022-07-29T01:09:46.138Z,95.51
2022-07-29T01:10:36.471Z,95.42
2022-07-29T01:11:36.442Z,95.82
2022-07-29T01:12:36.433Z,95.51
2022-07-29T01:13:36.472Z,95.62
2022-07-29T01:14:36.423Z,95.51
2022-07-29T01:15:36.402Z,95.51
2022-07-29T01:16:36.457Z,95.62
2022-07-29T01:17:36.388Z,95.72
2022-07-29T01:18:36.376Z,95.51
2022-07-29T01:19:36.366Z,95.51
2022-07-29T01:20:36.356Z,95.92
2022-07-29T01:21:36.345Z,95.92
2022-07-29T01:22:36.338Z,96.02
2022-07-29T01:23:36.327Z,95.92
2022-07-29T01:24:39.327Z,95.92
2022-07-29T01:25:36.335Z,96.02
2022-07-29T01:26:36.297Z,96.12
2022-07-29T01:27:36.311Z,96.33
2022-07-29T01:28:36.284Z,96.63
2022-07-29T01:29:39.016Z,96.63
2022-07-29T01:30:36.251Z,96.63
2022-07-29T01:31:36.510Z,96.93
2022-07-29T01:32:37.253Z,96.73
2022-07-29T01:33:36.229Z,96.63
2022-07-29T01:34:36.220Z,96.93
2022-07-29T01:35:36.200Z,96.33
2022-07-29T01:36:36.196Z,96.83
2022-07-29T01:37:36.180Z,96.63
2022-07-29T01:38:36.190Z,96.53
2022-07-29T01:39:39.173Z,96.73
2022-07-29T01:40:36.162Z,96.83
2022-07-29T01:41:36.139Z,97.03
2022-07-29T01:42:36.134Z,97.14
2022-07-29T01:43:36.137Z,97.03
2022-07-29T01:44:36.114Z,97.03
2022-07-29T01:45:36.152Z,96.63
2022-07-29T01:46:36.151Z,96.42
2022-07-29T01:47:36.082Z,97.03
2022-07-29T01:48:36.121Z,96.53
2022-07-29T01:49:36.055Z,96.78
2022-07-29T01:50:36.044Z,96.69
2022-07-29T01:51:36.066Z,96.98
2022-07-29T01:52:36.040Z,97.09
2022-07-29T01:53:37.978Z,96.98
2022-07-29T01:54:39.006Z,97.29
2022-07-29T01:55:36.042Z,97.29
2022-07-29T01:56:35.985Z,97.29
2022-07-29T01:57:35.980Z,96.98
2022-07-29T01:58:35.968Z,97.19
2022-07-29T01:59:35.966Z,97.29
2022-07-29T02:00:35.960Z,96.98
2022-07-29T02:01:36.008Z,97.39
2022-07-29T02:02:35.928Z,97.34
2022-07-29T02:03:35.916Z,97.14
2022-07-29T02:04:35.959Z,94.91
2022-07-29T02:05:35.890Z,95.67
2022-07-29T02:06:35.881Z,95.98
2022-07-29T02:07:35.891Z,96.28
2022-07-29T02:08:35.861Z,96.08
2022-07-29T02:09:38.857Z,95.98
2022-07-29T02:10:35.860Z,95.78
2022-07-29T02:11:35.828Z,96.18
2022-07-29T02:12:35.853Z,96.33
2022-07-29T02:13:35.813Z,96.02
2022-07-29T02:14:35.793Z,96.73
2022-07-29T02:15:35.842Z,96.42
2022-07-29T02:16:35.794Z,96.42
2022-07-29T02:17:35.774Z,96.22
2022-07-29T02:18:35.753Z,96.22
2022-07-29T02:19:35.773Z,96.22
2022-07-29T02:20:35.766Z,96.33
2022-07-29T02:21:35.723Z,96.33
2022-07-29T02:22:35.713Z,96.63
2022-07-29T02:23:50.270Z,96.33
2022-07-29T02:24:39.713Z,96.33
2022-07-29T02:25:38.309Z,96.53
2022-07-29T02:26:35.675Z,96.63
2022-07-29T02:27:35.667Z,96.53
2022-07-29T02:28:35.655Z,96.53
2022-07-29T02:29:35.666Z,96.88
2022-07-29T02:30:35.626Z,96.67
2022-07-29T02:31:35.706Z,96.57
2022-07-29T02:32:35.607Z,97.18
2022-07-29T02:33:35.609Z,97.08
2022-07-29T02:34:35.609Z,96.67
2022-07-29T02:35:35.588Z,96.47
2022-07-29T02:36:35.570Z,96.47
2022-07-29T02:37:35.581Z,96.37
2022-07-29T02:38:35.544Z,96.47
2022-07-29T02:39:38.554Z,96.47
2022-07-29T02:40:35.553Z,96.47
2022-07-29T02:41:35.530Z,96.47
2022-07-29T02:42:35.514Z,96.78
2022-07-29T02:43:35.503Z,96.88
2022-07-29T02:44:35.498Z,96.67
2022-07-29T02:45:35.483Z,96.88
2022-07-29T02:46:35.513Z,96.67
2022-07-29T02:47:41.578Z,96.47
2022-07-29T02:48:35.444Z,96.47
2022-07-29T02:49:35.631Z,96.27
2022-07-29T02:50:35.425Z,95.97
2022-07-29T02:51:44.084Z,96.07
2022-07-29T02:52:35.406Z,96.17
2022-07-29T02:53:35.397Z,96.31
2022-07-29T02:54:38.515Z,96.01
2022-07-29T02:55:35.414Z,96.22
2022-07-29T02:56:35.365Z,96.62
2022-07-29T02:57:35.386Z,96.31
2022-07-29T02:58:36.344Z,96.31
2022-07-29T02:59:35.335Z,96.51
2022-07-29T03:00:35.330Z,96.72
2022-07-29T03:01:35.330Z,96.62
2022-07-29T03:02:35.332Z,96.72
2022-07-29T03:03:35.298Z,96.92
2022-07-29T03:04:35.327Z,96.82
2022-07-29T03:05:35.280Z,96.51
2022-07-29T03:06:38.307Z,96.62
2022-07-29T03:07:35.249Z,96.42
2022-07-29T03:08:35.238Z,96.51
2022-07-29T03:09:38.229Z,96.31
2022-07-29T03:10:35.254Z,96.62
2022-07-29T03:11:46.397Z,96.87
2022-07-29T03:12:35.202Z,96.97
2022-07-29T03:13:35.190Z,96.97
2022-07-29T03:14:35.172Z,96.87
2022-07-29T03:15:35.233Z,96.87
2022-07-29T03:16:39.385Z,97.17
2022-07-29T03:17:35.150Z,96.97
2022-07-29T03:18:35.141Z,96.97
2022-07-29T03:19:35.156Z,96.97
2022-07-29T03:20:35.132Z,97.07
2022-07-29T03:21:35.187Z,96.97
2022-07-29T03:22:35.083Z,97.07
2022-07-29T03:23:36.816Z,97.02
2022-07-29T03:24:38.022Z,97.07
2022-07-29T03:25:35.026Z,96.87
2022-07-29T03:26:35.006Z,96.82
2022-07-29T03:27:35.034Z,96.77
2022-07-29T03:28:35.074Z,97.02
2022-07-29T03:29:34.975Z,96.82
2022-07-29T03:30:34.953Z,96.82
2022-07-29T03:31:34.992Z,96.97
2022-07-29T03:32:34.935Z,97.27
2022-07-29T03:33:34.925Z,96.97
2022-07-29T03:34:34.917Z,97.17
2022-07-29T03:35:34.905Z,97.27
2022-07-29T03:36:34.921Z,97.07
2022-07-29T03:37:34.880Z,97.02
2022-07-29T03:38:34.867Z,96.72
2022-07-29T03:39:37.903Z,97.23
2022-07-29T03:40:34.885Z,97.58
2022-07-29T03:41:34.987Z,97.58
2022-07-29T03:42:34.839Z,97.27
2022-07-29T03:43:34.836Z,97.47
2022-07-29T03:44:35.809Z,97.33
2022-07-29T03:45:34.802Z,97.53
2022-07-29T03:46:34.871Z,97.33
2022-07-29T03:47:49.616Z,97.73
2022-07-29T03:48:35.961Z,97.53
2022-07-29T03:49:34.755Z,97.83
2022-07-29T03:50:34.752Z,97.63
2022-07-29T03:51:34.741Z,97.63
2022-07-29T03:52:34.721Z,98.14
2022-07-29T03:53:34.717Z,98.34
2022-07-29T03:54:37.719Z,98.69
2022-07-29T03:55:34.710Z,98.34
2022-07-29T03:56:34.708Z,98.44
2022-07-29T03:57:34.673Z,98.85
2022-07-29T03:58:34.672Z,98.95
2022-07-29T03:59:34.653Z,99.25
2022-07-29T04:00:34.633Z,98.54
2022-07-29T04:01:34.695Z,98.09
2022-07-29T04:02:34.635Z,97.38
2022-07-29T04:03:34.689Z,97.38
2022-07-29T04:04:34.596Z,97.99
2022-07-29T04:05:34.599Z,97.99
2022-07-29T04:06:34.585Z,97.58
2022-07-29T04:07:34.565Z,97.79
2022-07-29T04:08:34.546Z,97.79
2022-07-29T04:09:37.555Z,97.69
2022-07-29T04:10:35.857Z,97.58
2022-07-29T04:11:34.562Z,98.19
2022-07-29T04:12:35.518Z,98.39
2022-07-29T04:13:34.517Z,99.01
2022-07-29T04:14:34.494Z,98.90
2022-07-29T04:15:34.552Z,98.80
2022-07-29T04:16:34.529Z,98.50
2022-07-29T04:17:34.468Z,99.01
2022-07-29T04:18:34.503Z,97.18
2022-07-29T04:19:34.453Z,96.63
2022-07-29T04:20:34.431Z,96.73
2022-07-29T04:21:34.429Z,95.11
2022-07-29T04:22:34.411Z,94.96
2022-07-29T04:23:34.414Z,94.36
2022-07-29T04:24:38.390Z,94.56
2022-07-29T04:25:34.400Z,95.37
2022-07-29T04:26:34.402Z,96.28
2022-07-29T04:27:34.359Z,95.78
2022-07-29T04:28:34.352Z,95.57
2022-07-29T04:29:34.339Z,94.06
2022-07-29T04:30:35.343Z,94.46
2022-07-29T04:31:34.445Z,94.46
2022-07-29T04:32:34.316Z,94.26
2022-07-29T04:33:34.327Z,94.36
2022-07-29T04:34:34.292Z,94.31
2022-07-29T04:35:37.934Z,95.22
2022-07-29T04:36:34.271Z,95.32
2022-07-29T04:37:34.256Z,94.82
2022-07-29T04:38:34.264Z,94.92
2022-07-29T04:39:37.234Z,95.43
2022-07-29T04:40:34.237Z,94.01
2022-07-29T04:41:34.538Z,94.51
2022-07-29T04:42:34.215Z,93.81
2022-07-29T04:43:36.960Z,93.81
2022-07-29T04:44:34.190Z,94.11
2022-07-29T04:45:34.178Z,94.01
2022-07-29T04:46:34.245Z,93.81
2022-07-29T04:47:34.160Z,94.01
2022-07-29T04:48:34.148Z,93.71
2022-07-29T04:49:34.129Z,93.60
2022-07-29T04:50:34.119Z,93.71
2022-07-29T04:51:34.212Z,94.01
2022-07-29T04:52:34.107Z,94.31
2022-07-29T04:53:34.092Z,93.51
2022-07-29T04:54:37.082Z,94.01
2022-07-29T04:55:34.143Z,94.31
2022-07-29T04:56:34.071Z,94.21
2022-07-29T04:57:34.049Z,94.27
2022-07-29T04:58:34.046Z,93.96
2022-07-29T04:59:34.020Z,94.27
2022-07-29T05:00:34.023Z,94.57
2022-07-29T05:01:34.089Z,94.67
2022-07-29T05:02:34.059Z,94.67
2022-07-29T05:03:34.022Z,95.18
2022-07-29T05:04:33.981Z,95.89
2022-07-29T05:05:33.965Z,95.78
2022-07-29T05:06:33.963Z,96.49
2022-07-29T05:07:33.947Z,95.98
2022-07-29T05:08:33.934Z,95.98
2022-07-29T05:09:36.934Z,96.29
2022-07-29T05:10:33.963Z,96.49
2022-07-29T05:11:33.913Z,97.40
2022-07-29T05:12:33.906Z,98.01
2022-07-29T05:13:46.303Z,97.91
2022-07-29T05:14:33.876Z,97.60
2022-07-29T05:15:33.882Z,95.78
2022-07-29T05:16:33.855Z,95.18
2022-07-29T05:17:33.836Z,94.67
2022-07-29T05:18:33.829Z,95.18
2022-07-29T05:19:33.826Z,94.78
2022-07-29T05:20:33.808Z,95.54
2022-07-29T05:21:33.787Z,95.64
2022-07-29T05:22:33.787Z,95.64
2022-07-29T05:23:33.806Z,95.54
2022-07-29T05:24:36.773Z,95.43
2022-07-29T05:25:44.251Z,95.94
2022-07-29T05:26:33.751Z,95.34
2022-07-29T05:27:33.740Z,95.43
2022-07-29T05:28:33.730Z,96.04
2022-07-29T05:29:44.298Z,95.84
2022-07-29T05:30:33.711Z,95.03
2022-07-29T05:31:33.700Z,95.34
2022-07-29T05:32:33.713Z,95.43
2022-07-29T05:33:36.474Z,94.93
2022-07-29T05:34:33.667Z,94.73
2022-07-29T05:35:33.658Z,94.63
2022-07-29T05:36:33.646Z,94.73
2022-07-29T05:37:33.651Z,93.68
2022-07-29T05:38:33.638Z,94.08
2022-07-29T05:39:48.934Z,94.28
2022-07-29T05:40:33.615Z,94.18
2022-07-29T05:41:33.608Z,93.98
2022-07-29T05:42:33.584Z,94.38
2022-07-29T05:43:33.564Z,94.59
2022-07-29T05:44:33.564Z,94.24
2022-07-29T05:45:33.581Z,92.62
2022-07-29T05:46:34.587Z,92.22
2022-07-29T05:47:33.526Z,91.91
2022-07-29T05:48:33.519Z,91.51
2022-07-29T05:49:33.557Z,92.22
2022-07-29T05:50:33.536Z,92.32
2022-07-29T05:51:34.492Z,92.07
2022-07-29T05:52:33.472Z,92.07
2022-07-29T05:53:33.469Z,92.68
2022-07-29T05:54:36.450Z,91.27
2022-07-29T05:55:33.483Z,90.66
2022-07-29T05:56:33.441Z,91.17
2022-07-29T05:57:33.461Z,91.06
2022-07-29T05:58:33.409Z,91.17
2022-07-29T05:59:33.400Z,91.37
2022-07-29T06:00:33.398Z,91.42
2022-07-29T06:01:33.451Z,90.82
2022-07-29T06:02:33.373Z,91.42
2022-07-29T06:03:33.363Z,91.93
2022-07-29T06:04:33.405Z,92.03
2022-07-29T06:05:33.376Z,92.83
2022-07-29T06:06:33.332Z,91.38
2022-07-29T06:07:33.876Z,90.88
2022-07-29T06:08:33.319Z,89.67
2022-07-29T06:09:36.526Z,90.07
2022-07-29T06:10:33.353Z,90.88
2022-07-29T06:11:33.274Z,90.58
2022-07-29T06:12:33.273Z,90.53
2022-07-29T06:13:33.265Z,90.33
2022-07-29T06:14:33.247Z,90.44
2022-07-29T06:15:33.323Z,90.44
2022-07-29T06:16:33.295Z,89.79
2022-07-29T06:17:33.228Z,89.69
2022-07-29T06:18:33.247Z,87.37
2022-07-29T06:19:33.197Z,86.46
2022-07-29T06:20:33.297Z,87.27
2022-07-29T06:21:33.168Z,87.98
2022-07-29T06:22:33.166Z,88.13
2022-07-29T06:23:33.188Z,88.23
2022-07-29T06:24:36.138Z,88.23
2022-07-29T06:25:33.155Z,87.43
2022-07-29T06:26:37.775Z,88.74
2022-07-29T06:27:33.133Z,88.94
2022-07-29T06:28:33.117Z,89.40
2022-07-29T06:29:33.098Z,88.09
2022-07-29T06:30:33.155Z,86.99
2022-07-29T06:31:33.075Z,86.68
2022-07-29T06:32:33.083Z,86.18
2022-07-29T06:33:33.053Z,86.99
2022-07-29T06:34:33.057Z,85.88
2022-07-29T06:35:38.536Z,86.08
2022-07-29T06:36:33.039Z,86.12
2022-07-29T06:37:33.016Z,87.13
2022-07-29T06:38:34.355Z,86.83
2022-07-29T06:39:37.014Z,86.83
2022-07-29T06:40:32.995Z,87.43
2022-07-29T06:41:32.966Z,86.63
2022-07-29T06:42:32.992Z,87.43
2022-07-29T06:43:32.942Z,88.34
2022-07-29T06:44:33.945Z,86.32
2022-07-29T06:45:32.924Z,86.83
2022-07-29T06:46:32.997Z,87.43
2022-07-29T06:47:32.903Z,88.13
2022-07-29T06:48:32.900Z,87.23
2022-07-29T06:49:32.977Z,87.83
2022-07-29T06:50:32.907Z,87.13
2022-07-29T06:51:32.928Z,87.73
2022-07-29T06:52:32.869Z,88.74
2022-07-29T06:53:32.849Z,89.75
2022-07-29T06:54:35.848Z,90.65
2022-07-29T06:55:32.929Z,90.34
2022-07-29T06:56:38.250Z,90.69
2022-07-29T06:57:32.804Z,92.00
2022-07-29T06:58:32.778Z,93.01
2022-07-29T06:59:35.762Z,93.91
2022-07-29T07:00:32.775Z,93.51
2022-07-29T07:01:32.831Z,93.35
2022-07-29T07:02:32.790Z,93.26
2022-07-29T07:03:32.748Z,93.86
2022-07-29T07:04:32.731Z,94.67
2022-07-29T07:05:32.722Z,94.67
2022-07-29T07:06:32.713Z,95.87
2022-07-29T07:07:32.721Z,94.91
2022-07-29T07:08:32.692Z,95.21
2022-07-29T07:09:40.689Z,95.92
2022-07-29T07:10:32.687Z,96.72
2022-07-29T07:11:32.662Z,96.22
2022-07-29T07:12:32.670Z,96.92
2022-07-29T07:13:32.632Z,97.03
2022-07-29T07:14:32.636Z,98.24
2022-07-29T07:15:39.096Z,97.33
2022-07-29T07:16:32.914Z,97.63
2022-07-29T07:17:32.583Z,97.63
2022-07-29T07:18:32.586Z,96.92
2022-07-29T07:19:32.582Z,97.23
2022-07-29T07:20:32.578Z,98.03
2022-07-29T07:21:32.595Z,97.23
2022-07-29T07:22:35.729Z,97.43
2022-07-29T07:23:32.524Z,97.33
2022-07-29T07:24:35.526Z,97.93
2022-07-29T07:25:32.539Z,98.24
2022-07-29T07:26:32.506Z,98.44
2022-07-29T07:27:32.488Z,98.54
2022-07-29T07:28:32.486Z,98.44
2022-07-29T07:29:32.466Z,98.64
2022-07-29T07:30:32.469Z,98.79
2022-07-29T07:31:32.501Z,99.19
2022-07-29T07:32:32.468Z,99.29
2022-07-29T07:33:32.432Z,98.68
2022-07-29T07:34:32.451Z,99.08
2022-07-29T07:35:32.410Z,99.29
2022-07-29T07:36:32.401Z,99.59
2022-07-29T07:37:32.400Z,99.89
2022-07-29T07:38:32.382Z,99.95
2022-07-29T07:39:35.402Z,99.99
2022-07-29T07:40:32.388Z,99.34
2022-07-29T07:41:32.724Z,98.74
2022-07-29T07:42:32.345Z,98.33
2022-07-29T07:43:32.327Z,97.43
2022-07-29T07:44:32.328Z,97.13
2022-07-29T07:45:33.329Z,96.92
2022-07-29T07:46:32.342Z,97.13
2022-07-29T07:47:32.291Z,97.43
2022-07-29T07:48:32.281Z,97.23
2022-07-29T07:49:32.265Z,97.03
2022-07-29T07:50:32.258Z,96.72
2022-07-29T07:51:32.283Z,96.42
2022-07-29T07:52:32.247Z,96.12
2022-07-29T07:53:32.488Z,96.42
2022-07-29T07:54:35.219Z,95.37
2022-07-29T07:55:53.401Z,94.26
2022-07-29T07:56:35.347Z,93.66
2022-07-29T07:57:32.180Z,94.36
2022-07-29T07:58:32.184Z,94.92
2022-07-29T07:59:32.169Z,93.71
2022-07-29T08:00:32.150Z,94.42
2022-07-29T08:01:55.740Z,94.72
2022-07-29T08:02:33.184Z,95.12
2022-07-29T08:03:32.121Z,94.62
2022-07-29T08:04:32.122Z,94.12
2022-07-29T08:05:32.109Z,94.12
2022-07-29T08:06:32.125Z,94.98
2022-07-29T08:07:32.082Z,94.78
2022-07-29T08:08:32.075Z,94.67
2022-07-29T08:09:35.068Z,94.57
2022-07-29T08:10:32.102Z,94.57
2022-07-29T08:11:34.070Z,95.18
2022-07-29T08:12:33.034Z,93.57
2022-07-29T08:13:32.036Z,94.67
2022-07-29T08:14:32.018Z,93.87
2022-07-29T08:15:31.997Z,93.66
2022-07-29T08:16:32.036Z,93.77
2022-07-29T08:17:31.986Z,92.96
2022-07-29T08:18:31.981Z,92.86
2022-07-29T08:19:31.967Z,92.06
2022-07-29T08:20:31.948Z,93.27
2022-07-29T08:21:31.984Z,93.87
2022-07-29T08:22:31.943Z,94.07
2022-07-29T08:23:46.259Z,94.47
2022-07-29T08:24:35.917Z,94.27
2022-07-29T08:25:31.924Z,94.47
2022-07-29T08:26:31.886Z,95.88
2022-07-29T08:27:43.347Z,95.07
2022-07-29T08:28:31.879Z,94.87
2022-07-29T08:29:31.850Z,95.28
2022-07-29T08:30:31.845Z,94.72
2022-07-29T08:31:31.897Z,94.72
2022-07-29T08:32:52.699Z,94.42
2022-07-29T08:33:32.812Z,94.52
2022-07-29T08:34:31.810Z,95.12
2022-07-29T08:35:35.561Z,94.01
2022-07-29T08:36:31.802Z,94.62
2022-07-29T08:37:31.782Z,95.12
2022-07-29T08:38:31.765Z,95.93
2022-07-29T08:39:34.785Z,96.13
2022-07-29T08:40:32.470Z,95.73
2022-07-29T08:41:31.793Z,95.83
2022-07-29T08:42:31.721Z,96.33
2022-07-29T08:43:31.707Z,96.33
2022-07-29T08:44:31.727Z,96.13
2022-07-29T08:45:31.717Z,96.53
2022-07-29T08:46:31.727Z,97.03
2022-07-29T08:47:31.677Z,96.43
2022-07-29T08:48:31.669Z,95.73
2022-07-29T08:49:31.657Z,96.03
2022-07-29T08:50:31.646Z,96.23
2022-07-29T08:51:31.636Z,95.93
2022-07-29T08:52:31.626Z,95.93
2022-07-29T08:53:31.635Z,97.24
2022-07-29T08:54:34.604Z,97.49
2022-07-29T08:55:31.599Z,97.39
2022-07-29T08:56:31.585Z,96.98
2022-07-29T08:57:31.569Z,97.75
2022-07-29T08:58:31.560Z,96.94
2022-07-29T08:59:31.558Z,97.34
2022-07-29T09:00:31.558Z,96.04
2022-07-29T09:01:35.563Z,95.99
2022-07-29T09:02:31.519Z,95.99
2022-07-29T09:03:31.596Z,96.50
2022-07-29T09:04:31.489Z,95.84
2022-07-29T09:05:31.482Z,94.04
2022-07-29T09:06:31.478Z,93.03
2022-07-29T09:07:34.795Z,93.59
2022-07-29T09:08:31.502Z,94.05
2022-07-29T09:09:34.442Z,92.80
2022-07-29T09:10:31.476Z,90.41
2022-07-29T09:11:31.424Z,89.61
2022-07-29T09:12:36.127Z,88.66
2022-07-29T09:13:31.421Z,86.46
2022-07-29T09:14:31.396Z,87.92
2022-07-29T09:15:31.404Z,85.97
2022-07-29T09:16:51.929Z,85.33
2022-07-29T09:17:32.391Z,86.73
2022-07-29T09:18:31.732Z,81.73
2022-07-29T09:19:31.345Z,81.57
2022-07-29T09:20:31.336Z,84.37
2022-07-29T09:21:31.318Z,84.47
2022-07-29T09:22:31.308Z,83.01
2022-07-29T09:23:31.298Z,84.71
2022-07-29T09:24:34.328Z,85.01
2022-07-29T09:25:31.303Z,84.31
2022-07-29T09:26:31.269Z,84.91
2022-07-29T09:27:32.207Z,85.11
2022-07-29T09:28:31.261Z,86.11
2022-07-29T09:29:35.825Z,83.51
2022-07-29T09:30:31.871Z,84.21
2022-07-29T09:31:31.277Z,85.51
2022-07-29T09:32:31.213Z,85.41
2022-07-29T09:33:31.206Z,85.91
2022-07-29T09:34:35.722Z,87.27
2022-07-29T09:35:31.180Z,86.68
2022-07-29T09:36:31.164Z,85.68
2022-07-29T09:37:31.156Z,83.67
2022-07-29T09:38:31.144Z,83.21
2022-07-29T09:39:34.185Z,81.81
2022-07-29T09:40:31.148Z,84.01
2022-07-29T09:41:31.113Z,85.11
2022-07-29T09:42:31.118Z,86.57
2022-07-29T09:43:31.103Z,86.98
2022-07-29T09:44:31.088Z,86.68
2022-07-29T09:45:31.097Z,83.87
2022-07-29T09:46:31.117Z,85.07
2022-07-29T09:47:31.059Z,86.27
2022-07-29T09:48:31.046Z,85.97
2022-07-29T09:49:31.032Z,83.97
2022-07-29T09:50:31.048Z,84.63
2022-07-29T09:51:38.477Z,84.63
2022-07-29T09:52:31.007Z,84.43
2022-07-29T09:53:30.990Z,82.39
2022-07-29T09:54:33.990Z,81.99
2022-07-29T09:55:31.029Z,81.39
2022-07-29T09:56:30.979Z,80.95
2022-07-29T09:57:31.483Z,81.15
2022-07-29T09:58:30.941Z,82.91
2022-07-29T09:59:30.928Z,81.71
2022-07-29T10:00:30.977Z,79.72
2022-07-29T10:01:30.911Z,79.52
2022-07-29T10:02:30.894Z,79.58
2022-07-29T10:03:30.974Z,79.48
2022-07-29T10:04:30.873Z,79.94
2022-07-29T10:05:36.728Z,80.44
2022-07-29T10:06:30.855Z,82.14
2022-07-29T10:07:30.860Z,78.70
2022-07-29T10:08:30.824Z,80.96
2022-07-29T10:09:33.823Z,75.64
2022-07-29T10:10:30.875Z,73.35
2022-07-29T10:11:35.417Z,71.81
2022-07-29T10:12:31.794Z,71.05
2022-07-29T10:13:30.796Z,75.54
2022-07-29T10:14:30.781Z,71.69
2022-07-29T10:15:30.790Z,74.18
2022-07-29T10:16:30.834Z,76.17
2022-07-29T10:17:30.740Z,74.81
2022-07-29T10:18:30.730Z,75.91
2022-07-29T10:19:30.719Z,75.35
2022-07-29T10:20:30.717Z,74.95
2022-07-29T10:21:35.225Z,76.54
2022-07-29T10:22:51.960Z,75.95
2022-07-29T10:23:46.401Z,72.99
2022-07-29T10:24:33.670Z,75.05
2022-07-29T10:25:30.671Z,75.95
2022-07-29T10:26:30.691Z,71.75
2022-07-29T10:27:30.644Z,73.45
2022-07-29T10:28:30.623Z,75.01
2022-07-29T10:29:30.618Z,74.32
2022-07-29T10:30:30.606Z,73.85
2022-07-29T10:31:30.708Z,73.41
2022-07-29T10:32:30.581Z,75.01
2022-07-29T10:33:30.577Z,73.31
2022-07-29T10:34:30.555Z,69.69
2022-07-29T10:35:30.562Z,70.15
2022-07-29T10:36:30.562Z,72.51
2022-07-29T10:37:36.144Z,69.96
2022-07-29T10:38:31.532Z,71.42
2022-07-29T10:39:41.879Z,73.44
2022-07-29T10:40:30.519Z,73.24
2022-07-29T10:41:32.407Z,73.57
2022-07-29T10:42:33.352Z,71.88
2022-07-29T10:43:30.469Z,71.48
2022-07-29T10:44:30.462Z,68.33
2022-07-29T10:45:30.455Z,70.03
2022-07-29T10:46:30.464Z,71.32
2022-07-29T10:47:30.472Z,68.40
2022-07-29T10:48:30.508Z,70.85
2022-07-29T10:49:30.963Z,70.32
2022-07-29T10:50:30.409Z,68.90
2022-07-29T10:51:30.389Z,69.79
2022-07-29T10:52:30.454Z,69.56
2022-07-29T10:53:33.873Z,68.73
2022-07-29T10:54:33.360Z,70.18
2022-07-29T10:55:30.353Z,68.07
2022-07-29T10:56:30.351Z,66.38
2022-07-29T10:57:53.751Z,65.29
2022-07-29T10:58:31.343Z,67.64
2022-07-29T10:59:32.360Z,66.71
2022-07-29T11:00:30.294Z,68.80
2022-07-29T11:02:41.954Z,67.08
2022-07-29T11:03:30.359Z,66.19
2022-07-29T11:04:30.255Z,65.39
2022-07-29T11:05:40.111Z,63.42
2022-07-29T11:06:30.235Z,64.17
2022-07-29T11:07:45.615Z,61.73
2022-07-29T11:08:31.234Z,62.62
2022-07-29T11:09:37.447Z,64.93
2022-07-29T11:10:31.671Z,62.68
2022-07-29T11:11:30.176Z,63.48
2022-07-29T11:12:30.173Z,63.80
2022-07-29T11:13:30.150Z,66.08
2022-07-29T11:14:30.187Z,64.33
2022-07-29T11:15:31.619Z,63.67
2022-07-29T11:16:30.138Z,64.49
2022-07-29T11:17:46.942Z,66.51
2022-07-29T11:18:31.137Z,66.41
2022-07-29T11:19:30.841Z,65.94
2022-07-29T11:20:30.120Z,64.95
2022-07-29T11:21:35.948Z,65.84
2022-07-29T11:22:31.074Z,67.04
2022-07-29T11:23:34.069Z,66.44
2022-07-29T11:24:33.168Z,66.94
2022-07-29T11:25:42.503Z,67.44
2022-07-29T11:26:31.026Z,65.94
2022-07-29T11:27:30.021Z,66.17
2022-07-29T11:28:30.004Z,65.31
2022-07-29T11:29:29.988Z,65.91
2022-07-29T11:30:29.985Z,66.91
2022-07-29T11:31:29.978Z,66.27
2022-07-29T11:32:29.966Z,66.17
2022-07-29T11:34:30.939Z,64.65
2022-07-29T11:35:38.534Z,66.44
2022-07-29T11:36:29.920Z,65.02
2022-07-29T11:37:29.910Z,64.42
2022-07-29T11:38:31.980Z,65.12
2022-07-29T11:39:37.059Z,65.81
2022-07-29T11:40:29.958Z,63.92
2022-07-29T11:41:29.858Z,65.02
2022-07-29T11:42:34.448Z,66.31
2022-07-29T11:43:30.849Z,66.51
2022-07-29T11:44:29.846Z,65.22
2022-07-29T11:45:42.848Z,63.82
2022-07-29T11:46:29.804Z,64.22
2022-07-29T11:47:29.828Z,64.12
2022-07-29T11:49:32.073Z,63.82
2022-07-29T11:50:29.774Z,65.15
2022-07-29T11:51:32.999Z,65.75
2022-07-29T11:52:29.764Z,65.84
2022-07-29T11:53:32.567Z,65.05
2022-07-29T11:54:32.737Z,65.15
2022-07-29T11:55:32.592Z,65.12
2022-07-29T11:56:30.715Z,65.91
2022-07-29T11:57:36.158Z,63.73
2022-07-29T11:58:29.688Z,65.02
2022-07-29T11:59:33.563Z,66.31
2022-07-29T12:00:29.669Z,65.72
2022-07-29T12:01:29.670Z,65.52
2022-07-29T12:02:38.271Z,65.05
2022-07-29T12:03:35.065Z,65.05
2022-07-29T12:04:29.632Z,64.75
2022-07-29T12:05:36.933Z,64.85
2022-07-29T12:06:29.603Z,66.94
2022-07-29T12:07:02.108Z,62.43
2022-07-29T12:07:33.781Z,67.24
2022-07-29T12:08:29.602Z,66.54
2022-07-29T12:09:40.145Z,66.74
2022-07-29T12:10:30.787Z,68.13
2022-07-29T12:11:29.609Z,66.44
2022-07-29T12:12:29.545Z,64.72
2022-07-29T12:13:37.108Z,65.91
2022-07-29T12:14:29.524Z,66.14
2022-07-29T12:15:39.212Z,66.74
2022-07-29T12:16:30.562Z,67.04
2022-07-29T12:17:30.655Z,66.24
2022-07-29T12:18:29.476Z,66.35
2022-07-29T12:19:29.473Z,66.44
2022-07-29T12:20:29.461Z,66.35
2022-07-29T12:21:29.527Z,65.38
2022-07-29T12:22:29.446Z,65.84
2022-07-29T12:23:29.549Z,66.24
2022-07-29T12:24:32.416Z,68.23
2022-07-29T12:25:33.950Z,69.62
2022-07-29T12:26:29.428Z,69.73
2022-07-29T12:27:29.738Z,70.03
2022-07-29T12:28:29.377Z,70.19
2022-07-29T12:29:34.955Z,68.73
2022-07-29T12:30:29.358Z,66.14
2022-07-29T12:31:42.956Z,67.14
2022-07-29T12:32:29.372Z,66.35
2022-07-29T12:33:29.336Z,66.57
2022-07-29T12:34:29.319Z,67.07
2022-07-29T12:35:29.390Z,67.44
2022-07-29T12:36:29.306Z,67.83
2022-07-29T12:37:38.983Z,69.03
2022-07-29T12:38:29.311Z,67.04
2022-07-29T12:39:32.255Z,67.33
2022-07-29T12:40:29.302Z,65.84
2022-07-29T12:41:29.304Z,66.44
2022-07-29T12:42:29.335Z,64.39
2022-07-29T12:43:29.221Z,66.27
2022-07-29T12:44:29.244Z,67.33
2022-07-29T12:45:29.197Z,67.54
2022-07-29T12:46:29.236Z,67.74
2022-07-29T12:47:29.176Z,66.64
2022-07-29T12:48:29.165Z,67.14
2022-07-29T12:49:29.176Z,65.98
2022-07-29T12:50:29.149Z,68.07
2022-07-29T12:51:29.134Z,68.56
2022-07-29T12:52:29.130Z,67.97
2022-07-29T12:53:29.115Z,67.07
2022-07-29T12:54:32.130Z,66.97